sensor_id;sensor_type;location;lat;lon;timestamp;P1;durP1;ratioP1;P2;durP2;ratioP2
19396;SDS011;9834;48.076;11.878;2023-04-16T00:02:07;2.97;;;2.13;;
19396;SDS011;9834;48.076;11.878;2023-04-16T00:04:35;2.97;;;2.67;;
19396;SDS011;9834;48.076;11.878;2023-04-16T00:07:01;2.80;;;2.47;;
19396;SDS011;9834;48.076;11.878;2023-04-16T00:09:29;3.47;;;2.13;;
19396;SDS011;9834;48.076;11.878;2023-04-16T00:11:57;2.03;;;1.90;;
19396;SDS011;9834;48.076;11.878;2023-04-16T00:14:24;2.53;;;2.33;;
19396;SDS011;9834;48.076;11.878;2023-04-16T00:16:51;4.00;;;2.70;;
19396;SDS011;9834;48.076;11.878;2023-04-16T00:19:19;2.57;;;2.20;;
19396;SDS011;9834;48.076;11.878;2023-04-16T00:21:45;3.27;;;2.53;;
19396;SDS011;9834;48.076;11.878;2023-04-16T00:24:13;2.27;;;2.00;;
19396;SDS011;9834;48.076;11.878;2023-04-16T00:26:40;3.97;;;2.83;;
19396;SDS011;9834;48.076;11.878;2023-04-16T00:29:09;2.53;;;2.07;;
19396;SDS011;9834;48.076;11.878;2023-04-16T00:31:37;4.30;;;2.53;;
19396;SDS011;9834;48.076;11.878;2023-04-16T00:34:03;3.23;;;2.47;;
19396;SDS011;9834;48.076;11.878;2023-04-16T00:36:31;3.97;;;3.23;;
19396;SDS011;9834;48.076;11.878;2023-04-16T00:38:58;5.00;;;2.70;;
19396;SDS011;9834;48.076;11.878;2023-04-16T00:41:25;5.20;;;3.00;;
19396;SDS011;9834;48.076;11.878;2023-04-16T00:43:52;5.33;;;3.47;;
19396;SDS011;9834;48.076;11.878;2023-04-16T00:46:20;6.30;;;3.30;;
19396;SDS011;9834;48.076;11.878;2023-04-16T00:48:48;4.10;;;3.33;;
19396;SDS011;9834;48.076;11.878;2023-04-16T00:51:18;4.47;;;3.63;;
19396;SDS011;9834;48.076;11.878;2023-04-16T00:53:45;3.83;;;3.50;;
19396;SDS011;9834;48.076;11.878;2023-04-16T00:56:13;4.57;;;3.83;;
19396;SDS011;9834;48.076;11.878;2023-04-16T00:58:40;4.00;;;3.50;;
19396;SDS011;9834;48.076;11.878;2023-04-16T01:01:07;3.67;;;3.33;;
19396;SDS011;9834;48.076;11.878;2023-04-16T01:03:37;3.63;;;3.30;;
19396;SDS011;9834;48.076;11.878;2023-04-16T01:06:06;5.33;;;4.37;;
19396;SDS011;9834;48.076;11.878;2023-04-16T01:08:33;6.80;;;4.00;;
19396;SDS011;9834;48.076;11.878;2023-04-16T01:11:00;4.33;;;3.50;;
19396;SDS011;9834;48.076;11.878;2023-04-16T01:13:28;4.00;;;3.60;;
19396;SDS011;9834;48.076;11.878;2023-04-16T01:15:55;4.73;;;4.10;;
19396;SDS011;9834;48.076;11.878;2023-04-16T01:18:22;4.80;;;3.83;;
19396;SDS011;9834;48.076;11.878;2023-04-16T01:20:53;4.33;;;3.93;;
19396;SDS011;9834;48.076;11.878;2023-04-16T01:23:20;4.47;;;3.57;;
19396;SDS011;9834;48.076;11.878;2023-04-16T01:25:47;4.03;;;3.63;;
19396;SDS011;9834;48.076;11.878;2023-04-16T01:28:14;3.83;;;3.47;;
19396;SDS011;9834;48.076;11.878;2023-04-16T01:30:41;4.33;;;3.90;;
19396;SDS011;9834;48.076;11.878;2023-04-16T01:33:09;5.80;;;4.40;;
19396;SDS011;9834;48.076;11.878;2023-04-16T01:35:37;6.70;;;4.53;;
19396;SDS011;9834;48.076;11.878;2023-04-16T01:38:06;4.90;;;3.90;;
19396;SDS011;9834;48.076;11.878;2023-04-16T01:40:34;6.57;;;4.50;;
19396;SDS011;9834;48.076;11.878;2023-04-16T01:43:01;7.53;;;4.10;;
19396;SDS011;9834;48.076;11.878;2023-04-16T01:45:30;4.53;;;4.10;;
19396;SDS011;9834;48.076;11.878;2023-04-16T01:47:57;6.63;;;3.93;;
19396;SDS011;9834;48.076;11.878;2023-04-16T01:50:24;5.83;;;4.40;;
19396;SDS011;9834;48.076;11.878;2023-04-16T01:52:52;4.47;;;3.83;;
19396;SDS011;9834;48.076;11.878;2023-04-16T01:55:20;4.37;;;3.87;;
19396;SDS011;9834;48.076;11.878;2023-04-16T01:57:47;6.80;;;4.93;;
19396;SDS011;9834;48.076;11.878;2023-04-16T02:00:14;7.97;;;3.83;;
19396;SDS011;9834;48.076;11.878;2023-04-16T02:02:41;5.23;;;3.60;;
19396;SDS011;9834;48.076;11.878;2023-04-16T02:05:08;7.63;;;4.77;;
19396;SDS011;9834;48.076;11.878;2023-04-16T02:07:35;4.80;;;4.13;;
19396;SDS011;9834;48.076;11.878;2023-04-16T02:10:02;7.63;;;4.60;;
19396;SDS011;9834;48.076;11.878;2023-04-16T02:12:32;6.83;;;5.20;;
19396;SDS011;9834;48.076;11.878;2023-04-16T02:15:00;5.67;;;4.23;;
19396;SDS011;9834;48.076;11.878;2023-04-16T02:17:27;5.53;;;4.57;;
19396;SDS011;9834;48.076;11.878;2023-04-16T02:19:55;6.67;;;5.07;;
19396;SDS011;9834;48.076;11.878;2023-04-16T02:22:22;4.97;;;4.30;;
19396;SDS011;9834;48.076;11.878;2023-04-16T02:24:48;5.00;;;4.27;;
19396;SDS011;9834;48.076;11.878;2023-04-16T02:27:15;4.17;;;3.77;;
19396;SDS011;9834;48.076;11.878;2023-04-16T02:29:44;6.60;;;4.70;;
19396;SDS011;9834;48.076;11.878;2023-04-16T02:32:11;7.17;;;5.70;;
19396;SDS011;9834;48.076;11.878;2023-04-16T02:34:38;6.57;;;4.63;;
19396;SDS011;9834;48.076;11.878;2023-04-16T02:37:05;4.90;;;4.00;;
19396;SDS011;9834;48.076;11.878;2023-04-16T02:39:32;8.43;;;5.47;;
19396;SDS011;9834;48.076;11.878;2023-04-16T02:41:59;6.10;;;3.90;;
19396;SDS011;9834;48.076;11.878;2023-04-16T02:44:26;5.90;;;4.67;;
19396;SDS011;9834;48.076;11.878;2023-04-16T02:46:54;5.27;;;4.40;;
19396;SDS011;9834;48.076;11.878;2023-04-16T02:49:21;6.23;;;4.63;;
19396;SDS011;9834;48.076;11.878;2023-04-16T02:51:48;6.77;;;4.53;;
19396;SDS011;9834;48.076;11.878;2023-04-16T02:54:15;5.77;;;4.93;;
19396;SDS011;9834;48.076;11.878;2023-04-16T02:56:42;5.17;;;4.50;;
19396;SDS011;9834;48.076;11.878;2023-04-16T02:59:09;5.60;;;4.67;;
19396;SDS011;9834;48.076;11.878;2023-04-16T03:01:36;5.53;;;4.23;;
19396;SDS011;9834;48.076;11.878;2023-04-16T03:04:05;5.60;;;4.10;;
19396;SDS011;9834;48.076;11.878;2023-04-16T03:06:32;5.73;;;5.10;;
19396;SDS011;9834;48.076;11.878;2023-04-16T03:08:59;8.03;;;5.03;;
19396;SDS011;9834;48.076;11.878;2023-04-16T03:11:26;7.83;;;4.90;;
19396;SDS011;9834;48.076;11.878;2023-04-16T03:13:53;6.30;;;4.80;;
19396;SDS011;9834;48.076;11.878;2023-04-16T03:16:20;6.73;;;5.50;;
19396;SDS011;9834;48.076;11.878;2023-04-16T03:18:47;5.97;;;4.23;;
19396;SDS011;9834;48.076;11.878;2023-04-16T03:21:16;6.20;;;5.37;;
19396;SDS011;9834;48.076;11.878;2023-04-16T03:23:43;5.33;;;4.17;;
19396;SDS011;9834;48.076;11.878;2023-04-16T03:26:10;6.07;;;4.57;;
19396;SDS011;9834;48.076;11.878;2023-04-16T03:28:37;5.70;;;4.60;;
19396;SDS011;9834;48.076;11.878;2023-04-16T03:31:04;7.33;;;4.80;;
19396;SDS011;9834;48.076;11.878;2023-04-16T03:33:31;6.37;;;4.60;;
19396;SDS011;9834;48.076;11.878;2023-04-16T03:35:58;4.27;;;3.87;;
19396;SDS011;9834;48.076;11.878;2023-04-16T03:38:26;5.80;;;4.97;;
19396;SDS011;9834;48.076;11.878;2023-04-16T03:40:53;7.13;;;5.43;;
19396;SDS011;9834;48.076;11.878;2023-04-16T03:43:20;5.03;;;4.00;;
19396;SDS011;9834;48.076;11.878;2023-04-16T03:45:48;5.43;;;4.43;;
19396;SDS011;9834;48.076;11.878;2023-04-16T03:48:14;4.50;;;4.07;;
19396;SDS011;9834;48.076;11.878;2023-04-16T03:50:43;8.70;;;4.60;;
19396;SDS011;9834;48.076;11.878;2023-04-16T03:53:12;5.37;;;4.00;;
19396;SDS011;9834;48.076;11.878;2023-04-16T03:55:41;6.10;;;4.60;;
19396;SDS011;9834;48.076;11.878;2023-04-16T03:58:08;5.03;;;4.37;;
19396;SDS011;9834;48.076;11.878;2023-04-16T04:00:35;5.93;;;4.50;;
19396;SDS011;9834;48.076;11.878;2023-04-16T04:03:02;6.60;;;4.50;;
19396;SDS011;9834;48.076;11.878;2023-04-16T04:05:29;5.03;;;4.53;;
19396;SDS011;9834;48.076;11.878;2023-04-16T04:07:56;4.63;;;4.00;;
19396;SDS011;9834;48.076;11.878;2023-04-16T04:10:23;6.87;;;4.90;;
19396;SDS011;9834;48.076;11.878;2023-04-16T04:12:51;6.17;;;4.43;;
19396;SDS011;9834;48.076;11.878;2023-04-16T04:15:18;4.27;;;3.77;;
19396;SDS011;9834;48.076;11.878;2023-04-16T04:17:45;4.70;;;4.30;;
19396;SDS011;9834;48.076;11.878;2023-04-16T04:20:12;7.20;;;4.33;;
19396;SDS011;9834;48.076;11.878;2023-04-16T04:22:39;5.20;;;3.70;;
19396;SDS011;9834;48.076;11.878;2023-04-16T04:25:06;3.90;;;3.50;;
19396;SDS011;9834;48.076;11.878;2023-04-16T04:27:35;4.93;;;4.27;;
19396;SDS011;9834;48.076;11.878;2023-04-16T04:30:04;5.10;;;4.57;;
19396;SDS011;9834;48.076;11.878;2023-04-16T04:32:32;4.67;;;4.17;;
19396;SDS011;9834;48.076;11.878;2023-04-16T04:35:00;4.13;;;3.40;;
19396;SDS011;9834;48.076;11.878;2023-04-16T04:37:28;6.50;;;4.53;;
19396;SDS011;9834;48.076;11.878;2023-04-16T04:39:55;5.23;;;3.83;;
19396;SDS011;9834;48.076;11.878;2023-04-16T04:42:22;5.07;;;4.43;;
19396;SDS011;9834;48.076;11.878;2023-04-16T04:44:49;4.27;;;3.87;;
19396;SDS011;9834;48.076;11.878;2023-04-16T04:47:17;6.23;;;4.03;;
19396;SDS011;9834;48.076;11.878;2023-04-16T04:49:44;5.17;;;3.93;;
19396;SDS011;9834;48.076;11.878;2023-04-16T04:52:11;3.60;;;3.27;;
19396;SDS011;9834;48.076;11.878;2023-04-16T04:54:39;4.07;;;3.67;;
19396;SDS011;9834;48.076;11.878;2023-04-16T04:57:06;4.07;;;3.77;;
19396;SDS011;9834;48.076;11.878;2023-04-16T04:59:33;3.93;;;3.40;;
19396;SDS011;9834;48.076;11.878;2023-04-16T05:02:00;4.10;;;3.70;;
19396;SDS011;9834;48.076;11.878;2023-04-16T05:04:29;4.97;;;3.37;;
19396;SDS011;9834;48.076;11.878;2023-04-16T05:06:56;4.63;;;4.07;;
19396;SDS011;9834;48.076;11.878;2023-04-16T05:09:23;3.73;;;3.27;;
19396;SDS011;9834;48.076;11.878;2023-04-16T05:11:50;4.97;;;4.40;;
19396;SDS011;9834;48.076;11.878;2023-04-16T05:14:17;5.33;;;3.87;;
19396;SDS011;9834;48.076;11.878;2023-04-16T05:16:44;4.53;;;3.30;;
19396;SDS011;9834;48.076;11.878;2023-04-16T05:19:11;3.90;;;3.50;;
19396;SDS011;9834;48.076;11.878;2023-04-16T05:21:40;4.13;;;3.53;;
19396;SDS011;9834;48.076;11.878;2023-04-16T05:24:07;3.37;;;2.80;;
19396;SDS011;9834;48.076;11.878;2023-04-16T05:26:34;3.83;;;3.43;;
19396;SDS011;9834;48.076;11.878;2023-04-16T05:29:01;3.77;;;2.97;;
19396;SDS011;9834;48.076;11.878;2023-04-16T05:31:28;3.77;;;3.27;;
19396;SDS011;9834;48.076;11.878;2023-04-16T05:33:55;2.67;;;2.43;;
19396;SDS011;9834;48.076;11.878;2023-04-16T05:36:22;2.83;;;2.47;;
19396;SDS011;9834;48.076;11.878;2023-04-16T05:38:51;3.10;;;2.73;;
19396;SDS011;9834;48.076;11.878;2023-04-16T05:41:17;2.87;;;2.23;;
19396;SDS011;9834;48.076;11.878;2023-04-16T05:43:45;3.57;;;2.70;;
19396;SDS011;9834;48.076;11.878;2023-04-16T05:46:12;3.07;;;2.10;;
19396;SDS011;9834;48.076;11.878;2023-04-16T05:48:39;2.63;;;1.97;;
19396;SDS011;9834;48.076;11.878;2023-04-16T05:51:06;3.17;;;2.80;;
19396;SDS011;9834;48.076;11.878;2023-04-16T05:53:33;4.73;;;2.43;;
19396;SDS011;9834;48.076;11.878;2023-04-16T05:56:01;2.10;;;1.90;;
19396;SDS011;9834;48.076;11.878;2023-04-16T05:58:28;1.40;;;1.30;;
19396;SDS011;9834;48.076;11.878;2023-04-16T06:00:55;1.90;;;1.80;;
19396;SDS011;9834;48.076;11.878;2023-04-16T06:03:22;1.70;;;1.60;;
19396;SDS011;9834;48.076;11.878;2023-04-16T06:05:49;2.20;;;1.33;;
19396;SDS011;9834;48.076;11.878;2023-04-16T06:08:16;1.53;;;1.33;;
19396;SDS011;9834;48.076;11.878;2023-04-16T06:10:44;1.20;;;1.10;;
19396;SDS011;9834;48.076;11.878;2023-04-16T06:13:13;2.30;;;1.57;;
19396;SDS011;9834;48.076;11.878;2023-04-16T06:15:40;1.20;;;1.10;;
19396;SDS011;9834;48.076;11.878;2023-04-16T06:18:08;1.90;;;0.80;;
19396;SDS011;9834;48.076;11.878;2023-04-16T06:20:34;1.23;;;0.93;;
19396;SDS011;9834;48.076;11.878;2023-04-16T06:23:02;0.97;;;0.80;;
19396;SDS011;9834;48.076;11.878;2023-04-16T06:25:29;0.97;;;0.93;;
19396;SDS011;9834;48.076;11.878;2023-04-16T06:27:56;0.70;;;0.70;;
19396;SDS011;9834;48.076;11.878;2023-04-16T06:30:24;0.50;;;0.50;;
19396;SDS011;9834;48.076;11.878;2023-04-16T06:32:51;0.60;;;0.50;;
19396;SDS011;9834;48.076;11.878;2023-04-16T06:35:19;0.93;;;0.50;;
19396;SDS011;9834;48.076;11.878;2023-04-16T06:37:46;0.30;;;0.30;;
19396;SDS011;9834;48.076;11.878;2023-04-16T06:40:13;0.30;;;0.30;;
19396;SDS011;9834;48.076;11.878;2023-04-16T06:42:41;0.43;;;0.43;;
19396;SDS011;9834;48.076;11.878;2023-04-16T06:45:08;0.30;;;0.30;;
19396;SDS011;9834;48.076;11.878;2023-04-16T06:47:38;0.40;;;0.40;;
19396;SDS011;9834;48.076;11.878;2023-04-16T06:50:05;0.33;;;0.33;;
19396;SDS011;9834;48.076;11.878;2023-04-16T06:52:33;0.47;;;0.47;;
19396;SDS011;9834;48.076;11.878;2023-04-16T06:55:00;0.20;;;0.20;;
19396;SDS011;9834;48.076;11.878;2023-04-16T06:57:27;0.47;;;0.47;;
19396;SDS011;9834;48.076;11.878;2023-04-16T06:59:54;0.10;;;0.10;;
19396;SDS011;9834;48.076;11.878;2023-04-16T07:02:21;0.10;;;0.10;;
19396;SDS011;9834;48.076;11.878;2023-04-16T07:04:50;0.20;;;0.20;;
19396;SDS011;9834;48.076;11.878;2023-04-16T07:07:17;0.10;;;0.10;;
19396;SDS011;9834;48.076;11.878;2023-04-16T07:09:45;0.13;;;0.13;;
19396;SDS011;9834;48.076;11.878;2023-04-16T07:12:12;0.20;;;0.20;;
19396;SDS011;9834;48.076;11.878;2023-04-16T07:14:39;0.20;;;0.20;;
19396;SDS011;9834;48.076;11.878;2023-04-16T07:17:06;0.40;;;0.40;;
19396;SDS011;9834;48.076;11.878;2023-04-16T07:19:33;0.10;;;0.10;;
19396;SDS011;9834;48.076;11.878;2023-04-16T07:22:02;0.20;;;0.20;;
19396;SDS011;9834;48.076;11.878;2023-04-16T07:24:29;0.10;;;0.10;;
19396;SDS011;9834;48.076;11.878;2023-04-16T07:26:56;0.20;;;0.20;;
19396;SDS011;9834;48.076;11.878;2023-04-16T07:29:24;0.10;;;0.10;;
19396;SDS011;9834;48.076;11.878;2023-04-16T07:31:51;0.10;;;0.10;;
19396;SDS011;9834;48.076;11.878;2023-04-16T07:34:18;0.13;;;0.13;;
19396;SDS011;9834;48.076;11.878;2023-04-16T07:36:45;0.10;;;0.10;;
19396;SDS011;9834;48.076;11.878;2023-04-16T07:39:13;0.10;;;0.10;;
19396;SDS011;9834;48.076;11.878;2023-04-16T07:41:40;0.10;;;0.10;;
19396;SDS011;9834;48.076;11.878;2023-04-16T07:44:08;0.10;;;0.10;;
19396;SDS011;9834;48.076;11.878;2023-04-16T07:46:35;0.33;;;0.33;;
19396;SDS011;9834;48.076;11.878;2023-04-16T07:49:02;0.13;;;0.13;;
19396;SDS011;9834;48.076;11.878;2023-04-16T07:51:29;0.00;;;0.00;;
19396;SDS011;9834;48.076;11.878;2023-04-16T07:53:56;0.10;;;0.10;;
19396;SDS011;9834;48.076;11.878;2023-04-16T07:56:24;0.10;;;0.10;;
19396;SDS011;9834;48.076;11.878;2023-04-16T07:58:51;0.10;;;0.10;;
19396;SDS011;9834;48.076;11.878;2023-04-16T08:01:18;0.10;;;0.10;;
19396;SDS011;9834;48.076;11.878;2023-04-16T08:03:45;0.10;;;0.10;;
19396;SDS011;9834;48.076;11.878;2023-04-16T08:06:12;0.27;;;0.20;;
19396;SDS011;9834;48.076;11.878;2023-04-16T08:08:39;1.70;;;0.40;;
19396;SDS011;9834;48.076;11.878;2023-04-16T08:11:06;0.30;;;0.13;;
19396;SDS011;9834;48.076;11.878;2023-04-16T08:13:35;0.10;;;0.10;;
19396;SDS011;9834;48.076;11.878;2023-04-16T08:16:02;0.17;;;0.17;;
19396;SDS011;9834;48.076;11.878;2023-04-16T08:18:29;0.73;;;0.27;;
19396;SDS011;9834;48.076;11.878;2023-04-16T08:20:56;0.23;;;0.23;;
19396;SDS011;9834;48.076;11.878;2023-04-16T08:23:23;0.17;;;0.17;;
19396;SDS011;9834;48.076;11.878;2023-04-16T08:25:50;0.30;;;0.30;;
19396;SDS011;9834;48.076;11.878;2023-04-16T08:28:18;0.10;;;0.10;;
19396;SDS011;9834;48.076;11.878;2023-04-16T08:30:46;0.27;;;0.20;;
19396;SDS011;9834;48.076;11.878;2023-04-16T08:33:13;0.10;;;0.10;;
19396;SDS011;9834;48.076;11.878;2023-04-16T08:35:40;0.63;;;0.33;;
19396;SDS011;9834;48.076;11.878;2023-04-16T08:38:08;0.10;;;0.10;;
19396;SDS011;9834;48.076;11.878;2023-04-16T08:40:36;0.00;;;0.00;;
19396;SDS011;9834;48.076;11.878;2023-04-16T08:43:08;0.17;;;0.17;;
19396;SDS011;9834;48.076;11.878;2023-04-16T08:45:37;0.20;;;0.20;;
19396;SDS011;9834;48.076;11.878;2023-04-16T08:48:08;0.10;;;0.10;;
19396;SDS011;9834;48.076;11.878;2023-04-16T08:50:37;0.10;;;0.10;;
19396;SDS011;9834;48.076;11.878;2023-04-16T08:53:06;0.20;;;0.20;;
19396;SDS011;9834;48.076;11.878;2023-04-16T08:55:39;0.30;;;0.30;;
19396;SDS011;9834;48.076;11.878;2023-04-16T08:58:12;0.20;;;0.20;;
19396;SDS011;9834;48.076;11.878;2023-04-16T09:00:40;0.10;;;0.10;;
19396;SDS011;9834;48.076;11.878;2023-04-16T09:03:11;0.10;;;0.10;;
19396;SDS011;9834;48.076;11.878;2023-04-16T09:05:38;0.00;;;0.00;;
19396;SDS011;9834;48.076;11.878;2023-04-16T09:08:07;0.20;;;0.20;;
19396;SDS011;9834;48.076;11.878;2023-04-16T09:10:34;0.10;;;0.10;;
19396;SDS011;9834;48.076;11.878;2023-04-16T09:13:01;0.20;;;0.20;;
19396;SDS011;9834;48.076;11.878;2023-04-16T09:15:28;0.10;;;0.10;;
19396;SDS011;9834;48.076;11.878;2023-04-16T09:17:55;0.10;;;0.10;;
19396;SDS011;9834;48.076;11.878;2023-04-16T09:20:23;0.20;;;0.20;;
19396;SDS011;9834;48.076;11.878;2023-04-16T09:22:50;0.20;;;0.20;;
19396;SDS011;9834;48.076;11.878;2023-04-16T09:25:18;0.50;;;0.50;;
19396;SDS011;9834;48.076;11.878;2023-04-16T09:27:48;0.33;;;0.20;;
19396;SDS011;9834;48.076;11.878;2023-04-16T09:30:20;0.10;;;0.10;;
19396;SDS011;9834;48.076;11.878;2023-04-16T09:32:48;0.20;;;0.20;;
19396;SDS011;9834;48.076;11.878;2023-04-16T09:35:16;0.30;;;0.30;;
19396;SDS011;9834;48.076;11.878;2023-04-16T09:37:46;0.00;;;0.00;;
19396;SDS011;9834;48.076;11.878;2023-04-16T09:40:23;0.10;;;0.10;;
19396;SDS011;9834;48.076;11.878;2023-04-16T09:42:51;0.10;;;0.10;;
19396;SDS011;9834;48.076;11.878;2023-04-16T09:45:21;0.10;;;0.10;;
19396;SDS011;9834;48.076;11.878;2023-04-16T09:47:48;0.13;;;0.13;;
19396;SDS011;9834;48.076;11.878;2023-04-16T09:50:16;0.10;;;0.10;;
19396;SDS011;9834;48.076;11.878;2023-04-16T09:52:46;0.10;;;0.10;;
19396;SDS011;9834;48.076;11.878;2023-04-16T09:55:14;0.10;;;0.10;;
19396;SDS011;9834;48.076;11.878;2023-04-16T09:57:43;0.10;;;0.10;;
19396;SDS011;9834;48.076;11.878;2023-04-16T10:00:11;0.10;;;0.10;;
19396;SDS011;9834;48.076;11.878;2023-04-16T10:02:39;0.10;;;0.10;;
19396;SDS011;9834;48.076;11.878;2023-04-16T10:05:06;0.67;;;0.13;;
19396;SDS011;9834;48.076;11.878;2023-04-16T10:07:34;0.30;;;0.30;;
19396;SDS011;9834;48.076;11.878;2023-04-16T10:10:04;0.10;;;0.10;;
19396;SDS011;9834;48.076;11.878;2023-04-16T10:12:32;0.00;;;0.00;;
19396;SDS011;9834;48.076;11.878;2023-04-16T10:14:59;0.10;;;0.10;;
19396;SDS011;9834;48.076;11.878;2023-04-16T10:17:27;0.00;;;0.00;;
19396;SDS011;9834;48.076;11.878;2023-04-16T10:19:55;0.10;;;0.10;;
19396;SDS011;9834;48.076;11.878;2023-04-16T10:22:23;0.10;;;0.10;;
19396;SDS011;9834;48.076;11.878;2023-04-16T10:24:51;0.10;;;0.10;;
19396;SDS011;9834;48.076;11.878;2023-04-16T10:27:21;0.00;;;0.00;;
19396;SDS011;9834;48.076;11.878;2023-04-16T10:29:48;0.10;;;0.10;;
19396;SDS011;9834;48.076;11.878;2023-04-16T10:32:16;0.20;;;0.20;;
19396;SDS011;9834;48.076;11.878;2023-04-16T10:34:45;0.10;;;0.10;;
19396;SDS011;9834;48.076;11.878;2023-04-16T10:37:14;0.10;;;0.10;;
19396;SDS011;9834;48.076;11.878;2023-04-16T10:39:43;0.10;;;0.10;;
19396;SDS011;9834;48.076;11.878;2023-04-16T10:42:10;0.10;;;0.10;;
19396;SDS011;9834;48.076;11.878;2023-04-16T10:44:39;0.30;;;0.20;;
19396;SDS011;9834;48.076;11.878;2023-04-16T10:47:10;0.20;;;0.20;;
19396;SDS011;9834;48.076;11.878;2023-04-16T10:49:38;0.33;;;0.27;;
19396;SDS011;9834;48.076;11.878;2023-04-16T10:52:08;0.20;;;0.20;;
19396;SDS011;9834;48.076;11.878;2023-04-16T10:54:37;0.10;;;0.10;;
19396;SDS011;9834;48.076;11.878;2023-04-16T10:57:05;0.20;;;0.20;;
19396;SDS011;9834;48.076;11.878;2023-04-16T10:59:34;0.10;;;0.10;;
19396;SDS011;9834;48.076;11.878;2023-04-16T11:02:06;0.13;;;0.13;;
19396;SDS011;9834;48.076;11.878;2023-04-16T11:04:35;0.40;;;0.37;;
19396;SDS011;9834;48.076;11.878;2023-04-16T11:07:06;0.20;;;0.20;;
19396;SDS011;9834;48.076;11.878;2023-04-16T11:09:50;0.53;;;0.20;;
19396;SDS011;9834;48.076;11.878;2023-04-16T11:12:19;0.20;;;0.20;;
19396;SDS011;9834;48.076;11.878;2023-04-16T11:14:48;0.77;;;0.50;;
19396;SDS011;9834;48.076;11.878;2023-04-16T11:17:17;1.70;;;0.57;;
19396;SDS011;9834;48.076;11.878;2023-04-16T11:19:44;0.43;;;0.30;;
19396;SDS011;9834;48.076;11.878;2023-04-16T11:22:12;0.83;;;0.57;;
19396;SDS011;9834;48.076;11.878;2023-04-16T11:24:41;0.10;;;0.10;;
19396;SDS011;9834;48.076;11.878;2023-04-16T11:27:10;0.10;;;0.10;;
19396;SDS011;9834;48.076;11.878;2023-04-16T11:29:38;0.10;;;0.10;;
19396;SDS011;9834;48.076;11.878;2023-04-16T11:32:05;0.40;;;0.40;;
19396;SDS011;9834;48.076;11.878;2023-04-16T11:34:34;0.10;;;0.10;;
19396;SDS011;9834;48.076;11.878;2023-04-16T11:37:09;0.50;;;0.30;;
19396;SDS011;9834;48.076;11.878;2023-04-16T11:39:47;0.20;;;0.20;;
19396;SDS011;9834;48.076;11.878;2023-04-16T11:42:17;0.33;;;0.33;;
19396;SDS011;9834;48.076;11.878;2023-04-16T11:44:46;0.20;;;0.20;;
19396;SDS011;9834;48.076;11.878;2023-04-16T11:47:17;0.20;;;0.20;;
19396;SDS011;9834;48.076;11.878;2023-04-16T11:49:46;0.10;;;0.10;;
19396;SDS011;9834;48.076;11.878;2023-04-16T11:52:13;0.20;;;0.20;;
19396;SDS011;9834;48.076;11.878;2023-04-16T11:54:49;0.20;;;0.20;;
19396;SDS011;9834;48.076;11.878;2023-04-16T11:57:22;0.20;;;0.20;;
19396;SDS011;9834;48.076;11.878;2023-04-16T11:59:51;0.23;;;0.23;;
19396;SDS011;9834;48.076;11.878;2023-04-16T12:07:54;0.30;;;0.30;;
19396;SDS011;9834;48.076;11.878;2023-04-16T12:10:22;0.27;;;0.27;;
19396;SDS011;9834;48.076;11.878;2023-04-16T12:12:49;0.10;;;0.10;;
19396;SDS011;9834;48.076;11.878;2023-04-16T12:15:16;0.57;;;0.30;;
19396;SDS011;9834;48.076;11.878;2023-04-16T12:17:44;0.20;;;0.20;;
19396;SDS011;9834;48.076;11.878;2023-04-16T12:20:12;0.10;;;0.10;;
19396;SDS011;9834;48.076;11.878;2023-04-16T12:22:42;0.10;;;0.10;;
19396;SDS011;9834;48.076;11.878;2023-04-16T12:25:11;0.20;;;0.20;;
19396;SDS011;9834;48.076;11.878;2023-04-16T12:27:40;0.20;;;0.20;;
19396;SDS011;9834;48.076;11.878;2023-04-16T12:30:15;0.20;;;0.20;;
19396;SDS011;9834;48.076;11.878;2023-04-16T12:32:44;0.30;;;0.30;;
19396;SDS011;9834;48.076;11.878;2023-04-16T12:35:12;0.10;;;0.10;;
19396;SDS011;9834;48.076;11.878;2023-04-16T12:37:39;0.30;;;0.30;;
19396;SDS011;9834;48.076;11.878;2023-04-16T12:40:08;0.20;;;0.20;;
19396;SDS011;9834;48.076;11.878;2023-04-16T12:42:35;0.40;;;0.40;;
19396;SDS011;9834;48.076;11.878;2023-04-16T12:45:02;0.37;;;0.37;;
19396;SDS011;9834;48.076;11.878;2023-04-16T12:47:31;0.37;;;0.30;;
19396;SDS011;9834;48.076;11.878;2023-04-16T12:49:58;0.10;;;0.10;;
19396;SDS011;9834;48.076;11.878;2023-04-16T12:52:26;0.43;;;0.43;;
19396;SDS011;9834;48.076;11.878;2023-04-16T12:54:55;0.33;;;0.33;;
19396;SDS011;9834;48.076;11.878;2023-04-16T12:57:22;0.20;;;0.20;;
19396;SDS011;9834;48.076;11.878;2023-04-16T12:59:53;0.30;;;0.30;;
19396;SDS011;9834;48.076;11.878;2023-04-16T13:02:21;0.80;;;0.60;;
19396;SDS011;9834;48.076;11.878;2023-04-16T13:04:48;0.60;;;0.60;;
19396;SDS011;9834;48.076;11.878;2023-04-16T13:07:14;0.47;;;0.40;;
19396;SDS011;9834;48.076;11.878;2023-04-16T13:09:41;0.90;;;0.70;;
19396;SDS011;9834;48.076;11.878;2023-04-16T13:12:10;0.97;;;0.37;;
19396;SDS011;9834;48.076;11.878;2023-04-16T13:14:38;0.40;;;0.40;;
19396;SDS011;9834;48.076;11.878;2023-04-16T13:17:05;0.33;;;0.33;;
19396;SDS011;9834;48.076;11.878;2023-04-16T13:19:32;0.30;;;0.30;;
19396;SDS011;9834;48.076;11.878;2023-04-16T13:21:59;0.17;;;0.17;;
19396;SDS011;9834;48.076;11.878;2023-04-16T13:24:26;0.30;;;0.30;;
19396;SDS011;9834;48.076;11.878;2023-04-16T13:26:53;0.30;;;0.27;;
19396;SDS011;9834;48.076;11.878;2023-04-16T13:29:22;0.40;;;0.40;;
19396;SDS011;9834;48.076;11.878;2023-04-16T13:31:49;0.47;;;0.33;;
19396;SDS011;9834;48.076;11.878;2023-04-16T13:34:17;1.60;;;0.80;;
19396;SDS011;9834;48.076;11.878;2023-04-16T13:36:45;0.57;;;0.50;;
19396;SDS011;9834;48.076;11.878;2023-04-16T13:39:12;0.50;;;0.50;;
19396;SDS011;9834;48.076;11.878;2023-04-16T13:41:39;1.43;;;0.70;;
19396;SDS011;9834;48.076;11.878;2023-04-16T13:44:07;0.40;;;0.40;;
19396;SDS011;9834;48.076;11.878;2023-04-16T13:46:35;0.30;;;0.30;;
19396;SDS011;9834;48.076;11.878;2023-04-16T13:49:02;0.47;;;0.47;;
19396;SDS011;9834;48.076;11.878;2023-04-16T13:51:29;0.33;;;0.33;;
19396;SDS011;9834;48.076;11.878;2023-04-16T13:53:56;0.43;;;0.43;;
19396;SDS011;9834;48.076;11.878;2023-04-16T13:56:23;0.17;;;0.17;;
19396;SDS011;9834;48.076;11.878;2023-04-16T13:58:53;0.20;;;0.20;;
19396;SDS011;9834;48.076;11.878;2023-04-16T14:01:20;0.20;;;0.20;;
19396;SDS011;9834;48.076;11.878;2023-04-16T14:03:49;0.30;;;0.30;;
19396;SDS011;9834;48.076;11.878;2023-04-16T14:06:15;0.20;;;0.20;;
19396;SDS011;9834;48.076;11.878;2023-04-16T14:08:43;0.27;;;0.27;;
19396;SDS011;9834;48.076;11.878;2023-04-16T14:11:10;0.23;;;0.20;;
19396;SDS011;9834;48.076;11.878;2023-04-16T14:13:37;0.80;;;0.33;;
19396;SDS011;9834;48.076;11.878;2023-04-16T14:16:04;0.23;;;0.23;;
19396;SDS011;9834;48.076;11.878;2023-04-16T14:18:31;0.30;;;0.30;;
19396;SDS011;9834;48.076;11.878;2023-04-16T14:21:01;0.30;;;0.30;;
19396;SDS011;9834;48.076;11.878;2023-04-16T14:23:28;0.20;;;0.20;;
19396;SDS011;9834;48.076;11.878;2023-04-16T14:25:55;0.30;;;0.30;;
19396;SDS011;9834;48.076;11.878;2023-04-16T14:28:22;0.27;;;0.27;;
19396;SDS011;9834;48.076;11.878;2023-04-16T14:30:49;0.47;;;0.47;;
19396;SDS011;9834;48.076;11.878;2023-04-16T14:33:16;0.30;;;0.30;;
19396;SDS011;9834;48.076;11.878;2023-04-16T14:35:43;0.30;;;0.30;;
19396;SDS011;9834;48.076;11.878;2023-04-16T14:38:12;0.47;;;0.47;;
19396;SDS011;9834;48.076;11.878;2023-04-16T14:40:39;0.17;;;0.17;;
19396;SDS011;9834;48.076;11.878;2023-04-16T14:43:07;0.50;;;0.43;;
19396;SDS011;9834;48.076;11.878;2023-04-16T14:45:34;0.30;;;0.30;;
19396;SDS011;9834;48.076;11.878;2023-04-16T14:48:03;0.40;;;0.40;;
19396;SDS011;9834;48.076;11.878;2023-04-16T14:50:30;2.57;;;0.87;;
19396;SDS011;9834;48.076;11.878;2023-04-16T14:53:01;0.30;;;0.30;;
19396;SDS011;9834;48.076;11.878;2023-04-16T14:55:30;0.50;;;0.40;;
19396;SDS011;9834;48.076;11.878;2023-04-16T14:57:57;0.70;;;0.43;;